Time;durP1;ratioP1;P1;durP2;ratioP2;P2;SDS_P1;SDS_P2;PMS_P1;PMS_P2;Temp;Humidity;BMP_temperature;BMP_pressure;BME280_temperature;BME280_humidity;BME280_pressure;Samples;Min_cycle;Max_cycle;Signal;HPM_P1;HPM_P2
2022/08/04 00:01:06;;;;;;;2.63;2.17;;;;;;;18.89;100.00;101303.78;5016605;28;20048;-74
2022/08/04 00:04:07;;;;;;;4.40;2.45;;;;;;;18.89;100.00;101308.31;5017400;28;20715;-74
2022/08/04 00:06:42;;;;;;;3.45;2.40;;;;;;;18.86;100.00;101304.84;5003895;28;20936;-74
2022/08/04 00:09:16;;;;;;;3.33;2.55;;;;;;;18.86;100.00;101301.31;5018486;28;20021;-75
2022/08/04 00:11:45;;;;;;;4.57;2.40;;;;;;;18.86;100.00;101298.66;5017343;28;20040;-75
2022/08/04 00:14:14;;;;;;;5.32;2.88;;;;;;;18.85;100.00;101303.16;5015841;28;20510;-75
2022/08/04 00:16:41;;;;;;;3.13;2.30;;;;;;;18.86;100.00;101293.28;5016484;28;20038;-75
2022/08/04 00:19:14;;;;;;;4.80;2.72;;;;;;;18.84;100.00;101293.38;5007418;28;20483;-75
2022/08/04 00:21:43;;;;;;;5.30;2.85;;;;;;;18.85;100.00;101291.56;5016795;28;20029;-75
2022/08/04 00:24:10;;;;;;;4.47;2.60;;;;;;;18.84;100.00;101288.03;5016570;28;20033;-75
2022/08/04 00:26:36;;;;;;;6.70;2.63;;;;;;;18.82;100.00;101286.41;4983987;28;20116;-75
2022/08/04 00:29:02;;;;;;;4.45;2.78;;;;;;;18.80;100.00;101283.84;5005971;28;20663;-75
2022/08/04 00:31:27;;;;;;;3.72;2.55;;;;;;;18.78;100.00;101279.59;5016891;28;20034;-74
2022/08/04 00:33:53;;;;;;;4.50;2.63;;;;;;;18.76;100.00;101277.00;4998743;28;20055;-74
2022/08/04 00:36:19;;;;;;;2.50;2.03;;;;;;;18.75;100.00;101280.66;5017586;28;20049;-75
2022/08/04 00:38:45;;;;;;;3.03;2.55;;;;;;;18.73;100.00;101294.19;5015784;28;20025;-73
2022/08/04 00:41:18;;;;;;;3.47;2.33;;;;;;;18.72;100.00;101286.25;5031381;28;20392;-74
2022/08/04 00:44:04;;;;;;;2.92;2.45;;;;;;;18.71;100.00;101288.09;5016876;28;20713;-75
2022/08/04 00:46:54;;;;;;;4.05;2.40;;;;;;;18.70;100.00;101286.34;5016723;28;20546;-75
2022/08/04 00:49:51;;;;;;;4.47;2.40;;;;;;;18.70;100.00;101289.03;5017751;28;21384;-73
2022/08/04 00:52:37;;;;;;;4.38;2.30;;;;;;;18.69;100.00;101287.31;5014007;28;20034;-73
2022/08/04 00:55:39;;;;;;;3.88;2.72;;;;;;;18.68;100.00;101282.94;5017064;28;20050;-73
2022/08/04 00:58:21;;;;;;;4.45;2.60;;;;;;;18.68;100.00;101282.94;5017021;28;20045;-74
2022/08/04 01:01:07;;;;;;;4.65;2.40;;;;;;;18.68;100.00;101279.41;5016259;28;20037;-74
2022/08/04 01:03:48;;;;;;;2.97;2.33;;;;;;;18.69;100.00;101281.13;4997881;28;20713;-74
2022/08/04 01:06:36;;;;;;;4.72;2.35;;;;;;;18.69;100.00;101275.75;5006046;28;20551;-74
2022/08/04 01:09:11;;;;;;;3.72;2.60;;;;;;;18.70;100.00;101272.94;4999991;28;20053;-74
2022/08/04 01:12:04;;;;;;;4.55;2.80;;;;;;;18.72;100.00;101278.19;5015789;28;20041;-74
2022/08/04 01:14:45;;;;;;;3.03;2.60;;;;;;;18.72;100.00;101271.00;5016605;28;20042;-75
2022/08/04 01:17:39;;;;;;;9.82;2.83;;;;;;;18.75;100.00;101269.94;5016517;28;20492;-75
2022/08/04 01:20:10;;;;;;;4.47;2.80;;;;;;;18.78;100.00;101264.34;5016818;28;20045;-75
2022/08/04 01:23:13;;;;;;;6.80;3.45;;;;;;;18.80;100.00;101258.88;5016575;28;20074;-75
2022/08/04 01:26:01;;;;;;;4.03;2.58;;;;;;;18.79;100.00;101259.84;5017361;28;20404;-75
2022/08/04 01:28:55;;;;;;;6.30;2.67;;;;;;;18.78;100.00;101253.59;5017810;28;20033;-75
2022/08/04 01:31:25;;;;;;;5.75;2.55;;;;;;;18.77;100.00;101251.91;5036545;28;20176;-75
2022/08/04 01:33:55;;;;;;;4.53;2.90;;;;;;;18.76;100.00;101252.88;5025825;28;20033;-75
2022/08/04 01:36:23;;;;;;;5.22;3.28;;;;;;;18.73;100.00;101255.75;5018004;28;20125;-75
2022/08/04 01:38:49;;;;;;;4.50;2.85;;;;;;;18.70;100.00;101254.16;5002221;28;20037;-75
2022/08/04 01:41:18;;;;;;;6.60;2.63;;;;;;;18.70;100.00;101258.69;5019497;28;20529;-75
2022/08/04 01:43:45;;;;;;;5.80;2.65;;;;;;;18.68;100.00;101257.94;5009424;28;20041;-75
2022/08/04 01:46:12;;;;;;;4.30;2.60;;;;;;;18.67;100.00;101259.75;5019171;28;20037;-75
2022/08/04 01:48:39;;;;;;;4.05;2.70;;;;;;;18.67;100.00;101262.44;5009087;28;20065;-75
2022/08/04 01:51:08;;;;;;;3.65;2.55;;;;;;;18.68;100.00;101272.19;4994225;28;20026;-74
2022/08/04 01:53:36;;;;;;;5.07;2.50;;;;;;;18.67;100.00;101261.56;5001232;28;20025;-74
2022/08/04 01:56:03;;;;;;;6.15;2.58;;;;;;;18.67;100.00;101270.50;5019255;28;20065;-74
2022/08/04 01:58:33;;;;;;;4.35;2.40;;;;;;;18.67;100.00;101269.63;5002076;28;20045;-74
2022/08/04 02:01:05;;;;;;;6.88;2.70;;;;;;;18.67;100.00;101261.56;5002166;28;20103;-74
2022/08/04 02:03:32;;;;;;;5.72;3.25;;;;;;;18.66;100.00;101254.50;5018359;28;20041;-75
2022/08/04 02:06:12;;;;;;;5.15;3.00;;;;;;;18.64;100.00;101256.44;5018972;28;20036;-74
2022/08/04 02:08:53;;;;;;;5.25;3.30;;;;;;;18.62;100.00;101248.50;5019131;28;20035;-74
2022/08/04 02:11:21;;;;;;;5.07;3.25;;;;;;;18.60;100.00;101247.78;5020495;28;20129;-74
2022/08/04 02:13:57;;;;;;;6.50;3.35;;;;;;;18.58;100.00;101242.53;5016557;28;20049;-74
2022/08/04 02:16:46;;;;;;;6.90;3.47;;;;;;;18.57;100.00;101254.22;4979558;28;20526;-75
2022/08/04 02:19:29;;;;;;;3.47;2.45;;;;;;;18.56;100.00;101247.16;5017547;28;20040;-74
2022/08/04 02:21:56;;;;;;;5.63;3.55;;;;;;;18.56;100.00;101255.19;4979477;28;20042;-74
2022/08/04 02:24:25;;;;;;;5.55;3.20;;;;;;;18.54;100.00;101257.13;5001567;28;20056;-74
2022/08/04 02:26:52;;;;;;;7.28;3.30;;;;;;;18.52;100.00;101259.06;5020454;28;20042;-74
2022/08/04 02:29:33;;;;;;;10.35;3.30;;;;;;;18.52;100.00;101256.38;5018425;28;20029;-74
2022/08/04 02:32:03;;;;;;;5.57;3.22;;;;;;;18.52;100.00;101258.22;5017428;28;20029;-74
2022/08/04 02:34:44;;;;;;;7.03;3.58;;;;;;;18.50;100.00;101249.41;5002711;28;20025;-74
2022/08/04 02:37:10;;;;;;;6.90;3.80;;;;;;;18.50;100.00;101249.41;5017459;28;20159;-74
2022/08/04 02:39:36;;;;;;;6.18;4.15;;;;;;;18.50;100.00;101247.59;4997647;28;20037;-73
2022/08/04 02:42:03;;;;;;;6.25;3.67;;;;;;;18.50;100.00;101250.28;5019589;28;20049;-74
2022/08/04 02:44:30;;;;;;;6.00;3.60;;;;;;;18.51;100.00;101245.78;5020022;28;20116;-74
2022/08/04 02:46:56;;;;;;;5.65;3.40;;;;;;;18.51;100.00;101251.97;5017441;28;20596;-74
2022/08/04 02:49:22;;;;;;;10.23;3.85;;;;;;;18.51;100.00;101246.63;5018017;28;20033;-73
2022/08/04 02:51:53;;;;;;;6.55;3.67;;;;;;;18.53;100.00;101243.84;5017272;28;20033;-74
2022/08/04 02:54:31;;;;;;;6.28;3.42;;;;;;;18.52;100.00;101240.28;5008931;28;20029;-74
2022/08/04 02:56:59;;;;;;;7.55;3.55;;;;;;;18.52;100.00;101242.97;5019715;28;20033;-74
2022/08/04 02:59:26;;;;;;;6.85;3.65;;;;;;;18.52;100.00;101234.94;5007837;28;20091;-75
2022/08/04 03:01:55;;;;;;;7.45;3.55;;;;;;;18.55;100.00;101236.53;5016441;28;20037;-74
2022/08/04 03:04:39;;;;;;;9.13;3.25;;;;;;;18.57;100.00;101237.25;5018167;28;20151;-73
2022/08/04 03:07:19;;;;;;;5.32;3.60;;;;;;;18.56;100.00;101232.88;5018884;28;20033;-74
2022/08/04 03:10:20;;;;;;;6.30;4.07;;;;;;;18.55;100.00;101226.69;5002288;28;20049;-73
2022/08/04 03:12:45;;;;;;;4.95;3.20;;;;;;;18.54;100.00;101224.97;5017440;28;20033;-74
2022/08/04 03:15:30;;;;;;;6.43;3.60;;;;;;;18.53;100.00;101222.41;5016573;28;20385;-74
2022/08/04 03:18:13;;;;;;;6.97;3.40;;;;;;;18.50;100.00;101219.91;5019580;28;20041;-74
2022/08/04 03:21:07;;;;;;;6.05;3.50;;;;;;;18.51;100.00;101224.34;5016638;28;20068;-74
2022/08/04 03:23:39;;;;;;;4.97;3.47;;;;;;;18.50;100.00;101222.59;5017882;28;20534;-74
2022/08/04 03:26:05;;;;;;;4.60;3.20;;;;;;;18.50;100.00;101217.25;5016860;28;20503;-74
2022/08/04 03:29:01;;;;;;;7.10;3.20;;;;;;;18.49;100.00;101211.03;5017026;28;21581;-74
2022/08/04 03:31:57;;;;;;;6.10;3.40;;;;;;;18.46;100.00;101209.44;5018117;28;20041;-74
2022/08/04 03:34:45;;;;;;;5.57;3.15;;;;;;;18.46;100.00;101212.13;5017610;28;20106;-74
2022/08/04 03:37:44;;;;;;;5.25;3.45;;;;;;;18.45;100.00;101210.41;5007898;28;20099;-75
2022/08/04 03:40:31;;;;;;;6.38;3.10;;;;;;;18.44;100.00;101210.50;5017607;28;20047;-74
2022/08/04 03:43:23;;;;;;;6.10;3.42;;;;;;;18.42;100.00;101202.56;5017272;28;20052;-74
2022/08/04 03:45:51;;;;;;;6.72;3.05;;;;;;;18.40;100.00;101201.84;5016547;28;20046;-75
2022/08/04 03:48:29;;;;;;;6.07;3.20;;;;;;;18.40;100.00;101198.28;5016668;28;20545;-74
2022/08/04 03:54:47;;;;;;;6.13;3.22;;;;;;;18.37;100.00;101202.09;5017778;28;20045;-74
2022/08/04 03:57:28;;;;;;;5.18;3.42;;;;;;;18.37;100.00;101206.56;5014319;28;20041;-74
2022/08/04 04:00:17;;;;;;;5.00;3.63;;;;;;;18.37;100.00;101203.88;5018921;28;20686;-74
2022/08/04 04:03:01;;;;;;;6.97;3.15;;;;;;;18.35;100.00;101198.63;5030676;28;20082;-74
2022/08/04 04:05:30;;;;;;;5.10;3.17;;;;;;;18.37;100.00;101206.56;4999958;28;20030;-75
2022/08/04 04:08:19;;;;;;;8.02;4.13;;;;;;;18.36;100.00;101210.22;5018496;28;20033;-75
2022/08/04 04:11:06;;;;;;;5.05;3.40;;;;;;;18.34;100.00;101206.81;5018467;28;20841;-75
2022/08/04 04:13:38;;;;;;;5.32;3.60;;;;;;;18.33;100.00;101200.59;5015797;28;20120;-74
2022/08/04 04:16:12;;;;;;;7.55;3.53;;;;;;;18.36;100.00;101194.16;5015824;28;20124;-74
2022/08/04 04:18:45;;;;;;;4.97;3.35;;;;;;;18.34;100.00;101196.94;5017595;28;20056;-74
2022/08/04 04:21:35;;;;;;;5.15;3.17;;;;;;;18.35;100.00;101197.78;5015091;28;20041;-74
2022/08/04 04:24:15;;;;;;;6.20;3.25;;;;;;;18.35;100.00;101195.94;5015723;28;20035;-75
2022/08/04 04:26:59;;;;;;;6.43;3.80;;;;;;;18.34;100.00;101194.25;4987726;28;20764;-74
2022/08/04 04:29:40;;;;;;;6.68;3.65;;;;;;;18.36;100.00;101189.63;5031243;28;20034;-74
2022/08/04 04:32:18;;;;;;;7.00;3.22;;;;;;;18.39;100.00;101191.22;5015581;28;20849;-74
2022/08/04 04:34:48;;;;;;;6.15;3.20;;;;;;;18.39;100.00;101194.78;5018916;28;20164;-75
2022/08/04 04:37:19;;;;;;;4.88;3.20;;;;;;;18.40;100.00;101187.56;5017853;28;20033;-74
2022/08/04 04:40:00;;;;;;;7.13;3.25;;;;;;;18.42;100.00;101189.19;5017285;28;20029;-74
2022/08/04 04:42:47;;;;;;;5.93;3.63;;;;;;;18.46;100.00;101189.81;5017409;28;20041;-74
2022/08/04 04:45:25;;;;;;;5.82;3.22;;;;;;;18.48;100.00;101185.22;5019192;28;20065;-74
2022/08/04 04:48:16;;;;;;;6.38;3.72;;;;;;;18.51;100.00;101181.44;5018889;28;20039;-74
2022/08/04 04:51:00;;;;;;;6.43;3.70;;;;;;;18.54;100.00;101184.75;5007536;28;20029;-75
2022/08/04 04:53:37;;;;;;;6.38;3.42;;;;;;;18.55;100.00;101183.78;5018158;28;20033;-75
2022/08/04 04:56:35;;;;;;;6.25;3.50;;;;;;;18.59;100.00;101187.94;5016530;28;20037;-75
2022/08/04 04:59:01;;;;;;;7.97;3.83;;;;;;;18.64;100.00;101181.38;5019370;28;20064;-75
2022/08/04 05:01:46;;;;;;;6.97;3.97;;;;;;;18.68;100.00;101182.88;5008063;28;20029;-75
2022/08/04 05:04:17;;;;;;;6.45;4.28;;;;;;;18.75;100.00;101185.94;5019765;28;20041;-75
2022/08/04 05:06:53;;;;;;;5.55;3.83;;;;;;;18.78;100.00;101183.88;5021976;28;20025;-75
2022/08/04 05:09:59;;;;;;;7.00;4.30;;;;;;;18.84;100.00;101188.78;5021839;28;20030;-76
2022/08/04 05:12:27;;;;;;;8.70;4.45;;;;;;;18.92;100.00;101190.03;5020353;28;20041;-76
2022/08/04 05:14:55;;;;;;;6.97;4.20;;;;;;;18.98;100.00;101194.94;5019948;28;20061;-76
2022/08/04 05:17:31;;;;;;;7.60;4.60;;;;;;;19.05;100.00;101184.59;5018148;28;20180;-76
2022/08/04 05:20:00;;;;;;;8.70;4.88;;;;;;;19.11;100.00;101190.38;5019259;28;20484;-76
2022/08/04 05:22:34;;;;;;;9.02;4.57;;;;;;;19.17;100.00;101180.16;5032526;28;20061;-74
2022/08/04 05:25:07;;;;;;;6.60;4.32;;;;;;;19.23;100.00;101185.88;5020687;28;20029;-73
2022/08/04 05:27:39;;;;;;;6.15;4.00;;;;;;;19.29;100.00;101194.44;5021512;28;20431;-74
2022/08/04 05:30:06;;;;;;;8.50;4.10;;;;;;;19.34;100.00;101181.53;5020120;28;20375;-75
2022/08/04 05:32:40;;;;;;;5.50;4.03;;;;;;;19.41;100.00;101191.66;5019785;28;20134;-81
2022/08/04 05:35:11;;;;;;;6.45;3.63;;;;;;;19.49;100.00;101187.50;5022198;28;20504;-81
2022/08/04 05:37:38;;;;;;;5.65;3.70;;;;;;;19.55;100.00;101189.72;4990384;28;20038;-74
2022/08/04 05:40:06;;;;;;;5.38;3.35;;;;;;;19.63;100.00;101190.00;5022671;28;20036;-75
2022/08/04 05:42:36;;;;;;;6.47;3.63;;;;;;;19.72;100.00;101203.69;5022695;28;20036;-75
2022/08/04 05:45:03;;;;;;;6.15;3.78;;;;;;;19.81;100.00;101194.88;5023226;28;20717;-75
2022/08/04 05:47:30;;;;;;;5.45;4.13;;;;;;;19.92;100.00;101194.00;5021936;28;20037;-75
2022/08/04 05:49:56;;;;;;;6.95;4.28;;;;;;;19.99;100.00;101192.56;5004714;28;20045;-75
2022/08/04 05:52:23;;;;;;;6.15;4.07;;;;;;;20.06;100.00;101192.94;5011511;28;20100;-76
2022/08/04 05:54:50;;;;;;;8.18;3.90;;;;;;;20.13;100.00;101195.97;5017945;28;20038;-75
2022/08/04 05:57:16;;;;;;;5.53;3.40;;;;;;;20.18;100.00;101202.72;5022393;28;20396;-76
2022/08/04 05:59:45;;;;;;;5.47;3.70;;;;;;;20.24;100.00;101198.66;5021927;28;20033;-75
2022/08/04 06:02:12;;;;;;;6.60;3.83;;;;;;;20.31;100.00;101196.31;5035274;28;20033;-76
2022/08/04 06:04:41;;;;;;;5.90;4.00;;;;;;;20.38;100.00;101194.00;5020373;28;20030;-76
2022/08/04 06:07:07;;;;;;;4.68;3.80;;;;;;;20.43;100.00;101189.94;4995639;28;20048;-76
2022/08/04 06:09:33;;;;;;;6.05;4.20;;;;;;;20.47;100.00;101191.41;5004775;28;20038;-76
2022/08/04 06:12:00;;;;;;;5.70;4.20;;;;;;;20.53;100.00;101191.91;5021402;28;20033;-73
2022/08/04 06:14:27;;;;;;;6.05;3.95;;;;;;;20.58;100.00;101185.16;5023603;28;20088;-72
2022/08/04 06:16:54;;;;;;;8.10;4.25;;;;;;;20.64;100.00;101189.16;5019276;28;20190;-73
2022/08/04 06:19:23;;;;;;;6.43;4.07;;;;;;;20.75;100.00;101191.81;5030971;28;20037;-73
2022/08/04 06:21:50;;;;;;;6.82;4.20;;;;;;;20.87;100.00;101191.81;5012807;28;20045;-73
2022/08/04 06:24:19;;;;;;;4.97;3.78;;;;;;;21.03;100.00;101180.59;5022298;28;20076;-74
2022/08/04 06:26:46;;;;;;;6.15;4.05;;;;;;;21.23;100.00;101184.28;5001406;28;20033;-73
2022/08/04 06:29:22;;;;;;;7.63;3.70;;;;;;;21.38;100.00;101186.63;5020877;28;20124;-74
2022/08/04 06:31:57;;;;;;;5.20;3.55;;;;;;;21.52;100.00;101182.75;5022740;28;20021;-71
2022/08/04 06:34:23;;;;;;;6.00;3.97;;;;;;;21.62;100.00;101189.03;5040113;28;20407;-72
2022/08/04 06:36:49;;;;;;;6.13;4.22;;;;;;;21.68;100.00;101188.50;4984609;28;20358;-73
2022/08/04 06:39:14;;;;;;;7.63;4.07;;;;;;;21.76;100.00;101189.69;5021917;28;20134;-72
2022/08/04 06:41:40;;;;;;;5.80;3.75;;;;;;;21.83;100.00;101197.09;5011195;28;20107;-75
2022/08/04 06:44:10;;;;;;;7.43;4.20;;;;;;;21.89;100.00;101190.31;5003498;28;20041;-75
2022/08/04 06:46:37;;;;;;;6.00;3.55;;;;;;;21.95;100.00;101199.72;5022628;28;20449;-75
2022/08/04 06:49:03;;;;;;;4.78;3.10;;;;;;;22.00;100.00;101202.81;5019203;28;20044;-74
2022/08/04 06:51:30;;;;;;;5.43;3.10;;;;;;;22.04;100.00;101206.09;5016043;28;20029;-74
2022/08/04 06:53:56;;;;;;;3.83;2.97;;;;;;;22.06;100.00;101207.66;5021014;28;20032;-74
2022/08/04 06:56:23;;;;;;;8.25;4.07;;;;;;;22.11;100.00;101216.22;5018585;28;20060;-74
2022/08/04 06:58:52;;;;;;;5.38;3.00;;;;;;;22.11;100.00;101213.50;5019121;28;20125;-76
2022/08/04 07:01:19;;;;;;;4.38;2.45;;;;;;;22.11;100.00;101210.81;4999351;28;20040;-75
2022/08/04 07:03:45;;;;;;;5.22;2.47;;;;;;;22.11;100.00;101216.22;5033851;28;20040;-75
2022/08/04 07:06:11;;;;;;;5.97;3.00;;;;;;;22.10;100.00;101213.66;5010131;28;20120;-75
2022/08/04 07:08:38;;;;;;;7.88;3.15;;;;;;;22.09;100.00;101206.56;5017610;28;20034;-75
2022/08/04 07:11:04;;;;;;;5.93;3.28;;;;;;;22.08;100.00;101216.50;5016851;28;20045;-75
2022/08/04 07:13:30;;;;;;;4.25;2.80;;;;;;;22.15;100.00;101211.41;5009966;28;20054;-74
2022/08/04 07:15:57;;;;;;;6.10;2.95;;;;;;;22.21;100.00;101215.38;5017487;28;20056;-75
2022/08/04 07:18:22;;;;;;;3.47;3.00;;;;;;;22.22;100.00;101214.41;5019093;28;20033;-73
2022/08/04 07:20:49;;;;;;;6.65;2.65;;;;;;;22.21;100.00;101218.94;5026758;28;20648;-75
2022/08/04 07:23:23;;;;;;;6.72;2.92;;;;;;;22.22;100.00;101211.72;5025355;28;20498;-75
2022/08/04 07:25:55;;;;;;;4.03;3.00;;;;;;;22.27;100.00;101217.53;5025659;28;20034;-73
2022/08/04 07:28:28;;;;;;;4.22;2.75;;;;;;;22.32;100.00;101225.19;5027614;28;20315;-73
2022/08/04 07:30:55;;;;;;;3.35;2.53;;;;;;;22.37;100.00;101225.63;5023988;28;20029;-72
2022/08/04 07:33:23;;;;;;;4.90;2.45;;;;;;;22.38;100.00;101222.81;5018991;28;20546;-77
2022/08/04 07:35:51;;;;;;;5.13;2.90;;;;;;;22.42;100.00;101222.53;5018080;28;20519;-74
2022/08/04 07:38:16;;;;;;;3.55;2.60;;;;;;;22.46;100.00;101218.56;5017450;28;20037;-74
2022/08/04 07:40:42;;;;;;;2.70;2.40;;;;;;;22.47;100.00;101220.28;5019413;28;20046;-75
2022/08/04 07:43:08;;;;;;;3.53;2.63;;;;;;;22.48;100.00;101216.56;5016055;28;20028;-75
2022/08/04 07:45:33;;;;;;;4.80;2.67;;;;;;;22.48;100.00;101216.56;5017563;28;20059;-75
2022/08/04 07:48:00;;;;;;;5.57;2.88;;;;;;;22.51;100.00;101219.03;5018856;28;20033;-73
2022/08/04 07:50:27;;;;;;;4.28;2.90;;;;;;;22.56;100.00;101222.19;5007953;28;20030;-74
2022/08/04 07:52:53;;;;;;;5.70;3.03;;;;;;;22.63;100.00;101219.75;5018797;28;20076;-75
2022/08/04 07:55:19;;;;;;;3.47;2.70;;;;;;;22.75;100.00;101212.38;5001481;28;20041;-74
2022/08/04 07:57:45;;;;;;;5.47;2.72;;;;;;;22.87;100.00;101216.66;5016412;28;20499;-74
2022/08/04 08:00:13;;;;;;;4.10;2.90;;;;;;;22.98;100.00;101212.97;5016550;28;20080;-74
2022/08/04 08:02:41;;;;;;;3.45;2.85;;;;;;;23.12;100.00;101219.78;5019304;28;20508;-74
2022/08/04 08:05:09;;;;;;;4.20;2.67;;;;;;;23.25;100.00;101215.94;5019020;28;20053;-73
2022/08/04 08:07:34;;;;;;;4.50;2.67;;;;;;;23.38;99.61;101208.41;5016626;28;20411;-74
2022/08/04 08:10:00;;;;;;;5.75;2.42;;;;;;;23.52;98.24;101226.00;5013230;28;20041;-74
2022/08/04 08:12:26;;;;;;;3.97;2.22;;;;;;;23.68;97.95;101233.50;5017341;28;20033;-74
2022/08/04 08:14:51;;;;;;;4.65;2.50;;;;;;;23.87;97.25;101226.31;5017765;28;20049;-74
2022/08/04 08:17:17;;;;;;;4.13;2.33;;;;;;;24.04;96.72;101226.53;5019004;28;20076;-74
2022/08/04 08:19:42;;;;;;;3.13;2.40;;;;;;;24.23;96.24;101233.72;5020102;28;20239;-76
2022/08/04 08:22:09;;;;;;;4.22;2.70;;;;;;;24.45;95.38;101226.22;5019581;28;20498;-75
2022/08/04 08:24:35;;;;;;;4.38;2.10;;;;;;;24.52;94.42;101228.13;5008216;28;20158;-75
2022/08/04 08:27:03;;;;;;;2.70;2.20;;;;;;;24.55;93.98;101222.44;4990929;28;20752;-75
2022/08/04 08:29:29;;;;;;;3.10;1.98;;;;;;;24.60;93.32;101223.81;5007632;28;20326;-75
2022/08/04 08:31:54;;;;;;;3.17;2.13;;;;;;;24.68;93.24;101221.22;4990526;28;20699;-75
2022/08/04 08:34:20;;;;;;;4.22;2.25;;;;;;;24.78;93.09;101227.38;5016419;28;20052;-75
2022/08/04 08:36:50;;;;;;;3.50;1.83;;;;;;;24.89;92.65;101231.75;5016308;28;20045;-73
2022/08/04 08:39:21;;;;;;;2.17;1.80;;;;;;;25.00;91.63;101227.09;5018536;28;20037;-74
2022/08/04 08:42:08;;;;;;;2.83;2.00;;;;;;;25.15;90.73;101224.69;4995512;28;20029;-74
2022/08/04 08:45:00;;;;;;;4.88;1.70;;;;;;;25.27;89.82;101223.41;5018964;28;20164;-75
2022/08/04 08:47:29;;;;;;;1.65;1.35;;;;;;;25.44;90.25;101231.69;5016457;28;20047;-74
2022/08/04 08:49:59;;;;;;;3.85;1.58;;;;;;;25.56;89.60;101232.28;5017150;28;20037;-76
2022/08/04 08:52:37;;;;;;;2.72;1.45;;;;;;;25.69;88.06;101229.13;5019189;28;20937;-75
2022/08/04 08:55:19;;;;;;;2.80;1.40;;;;;;;25.92;87.03;101224.00;5016556;28;20484;-74
2022/08/04 08:58:08;;;;;;;2.17;1.25;;;;;;;26.08;87.64;101225.94;4992845;28;20034;-73
2022/08/04 09:00:48;;;;;;;5.65;1.20;;;;;;;26.19;84.33;101226.69;5016867;28;20088;-75
2022/08/04 09:03:14;;;;;;;1.00;0.88;;;;;;;26.29;83.70;101228.28;5016691;28;20041;-75
2022/08/04 09:05:45;;;;;;;1.33;0.73;;;;;;;26.37;82.01;101230.13;5019090;28;20555;-75
2022/08/04 09:08:40;;;;;;;1.13;1.02;;;;;;;26.41;76.54;101230.66;5017666;28;20032;-74
2022/08/04 09:11:11;;;;;;;3.10;0.90;;;;;;;26.51;81.76;101225.09;5001342;28;20734;-75
2022/08/04 09:13:45;;;;;;;1.80;0.80;;;;;;;26.68;80.20;101229.53;5008389;28;20037;-75
2022/08/04 09:16:28;;;;;;;0.77;0.77;;;;;;;26.84;79.57;101233.28;5017176;28;20037;-74
2022/08/04 09:19:01;;;;;;;0.85;0.85;;;;;;;26.95;80.79;101224.84;5019952;28;20040;-74
2022/08/04 09:21:47;;;;;;;1.02;0.70;;;;;;;27.08;78.26;101228.94;4976667;28;20115;-75
2022/08/04 09:24:27;;;;;;;0.70;0.70;;;;;;;27.20;76.50;101232.16;5018635;28;20055;-74
2022/08/04 09:27:20;;;;;;;0.70;0.70;;;;;;;27.36;77.38;101231.28;5006984;28;20053;-74
2022/08/04 09:30:04;;;;;;;2.40;1.00;;;;;;;27.44;77.53;101234.00;4994571;28;20025;-75
2022/08/04 09:32:54;;;;;;;0.75;0.75;;;;;;;27.49;73.92;101233.47;5017702;28;20040;-75
2022/08/04 09:35:33;;;;;;;0.82;0.63;;;;;;;27.39;76.31;101236.38;5025112;28;20076;-76
2022/08/04 09:38:15;;;;;;;1.10;0.65;;;;;;;27.32;77.22;101240.78;5018839;28;20593;-74
2022/08/04 09:41:08;;;;;;;0.85;0.80;;;;;;;27.26;73.49;101242.34;5021160;28;20124;-74
2022/08/04 09:44:08;;;;;;;0.88;0.70;;;;;;;27.24;71.56;101247.94;5019426;28;20136;-74
2022/08/04 09:46:43;;;;;;;1.00;0.90;;;;;;;27.17;70.11;101252.34;5018686;28;20235;-74
2022/08/04 09:49:18;;;;;;;0.60;0.60;;;;;;;27.13;68.68;101253.72;5021875;28;20497;-74
2022/08/04 09:51:52;;;;;;;1.70;0.80;;;;;;;27.13;69.87;101252.88;5019773;28;20444;-74
2022/08/04 09:54:51;;;;;;;1.35;0.90;;;;;;;27.18;67.32;101254.03;5022553;28;20116;-75
2022/08/04 09:57:33;;;;;;;1.33;0.73;;;;;;;27.12;68.53;101262.88;5016709;28;20388;-74
2022/08/04 10:00:08;;;;;;;1.48;0.77;;;;;;;26.98;65.36;101254.38;5019950;28;20096;-75
2022/08/04 10:02:40;;;;;;;1.75;0.77;;;;;;;26.98;67.05;101267.13;5038422;28;21448;-74
2022/08/04 10:05:13;;;;;;;2.20;0.80;;;;;;;26.97;65.38;101265.44;5019774;28;20080;-73
2022/08/04 10:08:10;;;;;;;2.75;1.00;;;;;;;26.90;63.18;101269.81;5002027;28;20487;-73
2022/08/04 10:10:40;;;;;;;0.73;0.70;;;;;;;26.64;66.06;101268.88;5017089;28;20139;-72
2022/08/04 10:13:28;;;;;;;1.85;0.80;;;;;;;26.51;68.29;101274.81;5019795;28;20063;-72
2022/08/04 10:16:11;;;;;;;1.58;0.90;;;;;;;26.33;65.04;101274.91;5020330;28;20045;-72
2022/08/04 10:18:51;;;;;;;1.85;0.60;;;;;;;26.25;68.34;101272.19;5010127;28;20120;-75
2022/08/04 10:21:25;;;;;;;1.27;0.90;;;;;;;26.34;67.81;101268.47;5019818;28;20399;-75
2022/08/04 10:24:00;;;;;;;1.08;0.73;;;;;;;26.42;68.55;101267.66;5009948;28;20140;-76
2022/08/04 10:26:44;;;;;;;0.73;0.65;;;;;;;26.52;68.18;101278.38;5018658;28;20107;-76
2022/08/04 10:29:21;;;;;;;1.20;0.60;;;;;;;26.56;67.27;101268.88;5016744;28;20514;-76
2022/08/04 10:31:52;;;;;;;1.65;0.68;;;;;;;26.62;66.85;101270.09;5019298;28;20124;-75
2022/08/04 10:34:31;;;;;;;0.73;0.70;;;;;;;26.67;65.93;101278.56;5019280;28;20049;-75
2022/08/04 10:37:04;;;;;;;1.15;0.80;;;;;;;26.68;65.15;101281.13;5003850;28;20581;-74
2022/08/04 10:39:41;;;;;;;1.05;0.70;;;;;;;26.63;63.30;101286.19;5018275;28;20050;-75
2022/08/04 10:42:24;;;;;;;0.63;0.60;;;;;;;26.54;62.83;101284.47;5007372;28;20138;-75
2022/08/04 10:45:08;;;;;;;0.60;0.60;;;;;;;26.43;65.19;101283.75;4964479;28;20455;-75
2022/08/04 10:47:51;;;;;;;0.50;0.50;;;;;;;26.31;63.66;101287.81;5016879;28;20038;-75
2022/08/04 10:50:18;;;;;;;1.02;0.80;;;;;;;26.28;63.99;101279.97;4972493;28;20029;-74
2022/08/04 10:52:49;;;;;;;0.95;0.73;;;;;;;26.15;63.85;101288.56;4983055;28;20610;-75
2022/08/04 10:55:19;;;;;;;0.70;0.70;;;;;;;26.09;64.46;101284.59;5011192;28;20037;-74
2022/08/04 10:57:50;;;;;;;0.70;0.70;;;;;;;26.12;62.21;101289.72;5018440;28;20037;-74
2022/08/04 11:00:22;;;;;;;0.98;0.55;;;;;;;26.07;62.79;101292.06;5018941;28;20030;-74
2022/08/04 11:03:07;;;;;;;0.93;0.60;;;;;;;25.97;61.12;101288.63;5009493;28;20124;-73
2022/08/04 11:05:41;;;;;;;0.82;0.73;;;;;;;25.90;63.55;101285.69;5020746;28;20033;-74
2022/08/04 11:08:21;;;;;;;0.70;0.70;;;;;;;25.79;61.65;101288.66;5016133;28;20156;-75
2022/08/04 11:10:52;;;;;;;1.10;0.63;;;;;;;25.70;64.08;101293.22;5009022;28;20029;-75
2022/08/04 11:13:19;;;;;;;1.45;0.77;;;;;;;25.59;64.15;101300.59;5008644;28;20107;-75
2022/08/04 11:15:54;;;;;;;1.15;0.80;;;;;;;25.56;63.05;101302.75;5016014;28;20045;-76
2022/08/04 11:18:44;;;;;;;1.23;0.77;;;;;;;25.50;63.44;101298.78;5020717;28;20033;-75
2022/08/04 11:21:15;;;;;;;0.88;0.80;;;;;;;25.45;64.13;101307.38;5019514;28;20503;-76
2022/08/04 11:23:45;;;;;;;1.27;1.00;;;;;;;25.42;64.24;101312.25;5017095;28;20512;-75
2022/08/04 11:26:18;;;;;;;1.10;1.00;;;;;;;25.38;64.32;101314.44;5000994;28;20555;-75
2022/08/04 11:28:53;;;;;;;2.22;0.80;;;;;;;25.32;64.00;101320.47;5005871;28;20049;-73
2022/08/04 11:31:23;;;;;;;1.27;0.85;;;;;;;25.24;64.16;101329.41;4995832;28;20025;-73
2022/08/04 11:34:14;;;;;;;1.90;0.80;;;;;;;25.20;63.42;101328.84;5018343;28;20025;-74
2022/08/04 11:36:45;;;;;;;0.65;0.65;;;;;;;25.16;63.83;101329.31;5018985;28;20040;-74
2022/08/04 11:39:24;;;;;;;1.17;0.80;;;;;;;25.13;63.84;101329.63;5033002;28;20488;-74
2022/08/04 11:41:57;;;;;;;1.13;0.80;;;;;;;25.11;65.18;101331.63;5019393;28;20033;-74
2022/08/04 11:44:29;;;;;;;1.67;0.80;;;;;;;25.14;65.27;101339.44;5019040;28;20125;-79
2022/08/04 11:46:59;;;;;;;0.75;0.70;;;;;;;25.18;65.13;101332.72;5003972;28;20077;-78
2022/08/04 11:49:26;;;;;;;1.13;0.82;;;;;;;25.18;66.11;101330.00;4999667;28;20040;-73
2022/08/04 11:51:52;;;;;;;0.77;0.77;;;;;;;25.18;65.63;101340.84;5014669;28;20080;-73
2022/08/04 11:54:19;;;;;;;0.98;0.80;;;;;;;25.15;65.52;101336.59;5022609;28;20496;-73
2022/08/04 11:56:45;;;;;;;1.25;0.90;;;;;;;25.16;66.12;101356.41;5014066;28;20291;-73